createdAt,value
2023-03-10T09:49:04.770Z,21.16
2023-03-10T09:49:33.244Z,21.09
2023-03-10T09:50:02.349Z,21.01
2023-03-10T09:50:33.324Z,20.91
2023-03-10T09:51:02.321Z,20.80
2023-03-10T09:51:32.565Z,20.69
2023-03-10T09:52:02.313Z,20.74
2023-03-10T09:52:32.320Z,20.74
2023-03-10T09:53:02.293Z,20.71
2023-03-10T09:53:33.251Z,20.69
2023-03-10T09:54:02.584Z,20.65
2023-03-10T09:54:33.410Z,20.64
2023-03-10T09:55:02.289Z,20.62
2023-03-10T09:55:32.255Z,20.65
2023-03-10T09:56:02.383Z,20.65
2023-03-10T09:56:32.247Z,20.66
2023-03-10T09:57:02.181Z,20.65
2023-03-10T09:57:32.205Z,20.64
2023-03-10T09:58:03.965Z,20.59
2023-03-10T09:59:40.815Z,20.34
2023-03-10T10:00:11.029Z,20.35
2023-03-10T10:00:40.781Z,20.41
2023-03-10T10:01:10.859Z,20.43
2023-03-10T10:01:40.730Z,20.43
2023-03-10T10:02:10.724Z,20.41
2023-03-10T10:02:40.892Z,20.34
2023-03-10T10:03:10.730Z,20.33
2023-03-10T10:03:52.101Z,20.34
2023-03-10T10:04:10.858Z,20.41
2023-03-10T10:04:43.715Z,20.43
2023-03-10T10:05:10.658Z,20.59
2023-03-10T10:05:40.596Z,20.74
2023-03-10T10:06:10.699Z,20.81
2023-03-10T10:06:40.712Z,20.89
2023-03-10T10:07:14.023Z,21.02
2023-03-10T10:07:40.565Z,21.05
2023-03-10T10:08:10.521Z,21.11
2023-03-10T10:08:40.501Z,21.13
2023-03-10T10:09:10.481Z,21.16
2023-03-10T10:09:40.465Z,21.19
2023-03-10T10:10:10.582Z,21.26
2023-03-10T10:10:40.429Z,21.42
2023-03-10T10:11:10.409Z,21.38
2023-03-10T10:11:40.413Z,21.30
2023-03-10T10:12:10.373Z,21.27
2023-03-10T10:12:40.312Z,21.26
2023-03-10T10:13:10.319Z,21.24
2023-03-10T10:13:43.072Z,21.26
2023-03-10T10:14:13.205Z,21.26
2023-03-10T10:14:45.102Z,21.32
2023-03-10T10:15:10.260Z,21.36
2023-03-10T10:15:40.226Z,21.38
2023-03-10T10:16:28.049Z,21.38
2023-03-10T10:16:40.491Z,21.38
2023-03-10T10:17:10.307Z,21.38
2023-03-10T10:17:50.841Z,21.41
